sensor_id;sensor_type;location;lat;lon;timestamp;temperature;humidity
76099;DHT22;64828;49.956;8.636;2023-03-12T00:00:12;-4.40;89.90
76099;DHT22;64828;49.956;8.636;2023-03-12T00:00:28;-4.40;89.90
76099;DHT22;64828;49.956;8.636;2023-03-12T00:00:44;-4.40;89.90
76099;DHT22;64828;49.956;8.636;2023-03-12T00:01:00;-4.50;89.90
76099;DHT22;64828;49.956;8.636;2023-03-12T00:01:26;-4.50;89.90
76099;DHT22;64828;49.956;8.636;2023-03-12T00:01:41;-4.50;89.90
76099;DHT22;64828;49.956;8.636;2023-03-12T00:01:57;-4.50;89.90
76099;DHT22;64828;49.956;8.636;2023-03-12T00:02:13;-4.50;89.90
76099;DHT22;64828;49.956;8.636;2023-03-12T00:02:29;-4.40;89.90
76099;DHT22;64828;49.956;8.636;2023-03-12T00:02:45;-4.40;90.00
76099;DHT22;64828;49.956;8.636;2023-03-12T00:03:00;-4.40;90.10
76099;DHT22;64828;49.956;8.636;2023-03-12T00:03:16;-4.40;90.10
76099;DHT22;64828;49.956;8.636;2023-03-12T00:03:32;-4.40;90.10
76099;DHT22;64828;49.956;8.636;2023-03-12T00:03:48;-4.40;90.10
76099;DHT22;64828;49.956;8.636;2023-03-12T00:04:05;-4.40;90.00
76099;DHT22;64828;49.956;8.636;2023-03-12T00:04:21;-4.40;90.00
76099;DHT22;64828;49.956;8.636;2023-03-12T00:04:36;-4.40;90.10
76099;DHT22;64828;49.956;8.636;2023-03-12T00:04:52;-4.40;90.10
76099;DHT22;64828;49.956;8.636;2023-03-12T00:05:08;-4.40;90.10
76099;DHT22;64828;49.956;8.636;2023-03-12T00:05:24;-4.40;90.10
76099;DHT22;64828;49.956;8.636;2023-03-12T00:05:43;-4.40;90.00
76099;DHT22;64828;49.956;8.636;2023-03-12T00:06:02;-4.40;90.00
76099;DHT22;64828;49.956;8.636;2023-03-12T00:06:19;-4.40;90.00
76099;DHT22;64828;49.956;8.636;2023-03-12T00:06:36;-4.40;90.00
76099;DHT22;64828;49.956;8.636;2023-03-12T00:06:51;-4.40;90.00
76099;DHT22;64828;49.956;8.636;2023-03-12T00:07:07;-4.40;90.00
76099;DHT22;64828;49.956;8.636;2023-03-12T00:07:23;-4.40;90.00
76099;DHT22;64828;49.956;8.636;2023-03-12T00:07:38;-4.40;90.00
76099;DHT22;64828;49.956;8.636;2023-03-12T00:07:54;-4.40;90.00
76099;DHT22;64828;49.956;8.636;2023-03-12T00:08:13;-4.40;90.00
76099;DHT22;64828;49.956;8.636;2023-03-12T00:08:29;-4.40;90.00
76099;DHT22;64828;49.956;8.636;2023-03-12T00:08:45;-4.30;90.10
76099;DHT22;64828;49.956;8.636;2023-03-12T00:09:01;-4.40;90.00
76099;DHT22;64828;49.956;8.636;2023-03-12T00:09:18;-4.40;90.00
76099;DHT22;64828;49.956;8.636;2023-03-12T00:09:36;-4.30;90.10
76099;DHT22;64828;49.956;8.636;2023-03-12T00:09:53;-4.30;90.10
76099;DHT22;64828;49.956;8.636;2023-03-12T00:10:09;-4.30;90.00
76099;DHT22;64828;49.956;8.636;2023-03-12T00:10:25;-4.30;90.00
76099;DHT22;64828;49.956;8.636;2023-03-12T00:10:41;-4.30;90.00
76099;DHT22;64828;49.956;8.636;2023-03-12T00:10:57;-4.30;90.00
76099;DHT22;64828;49.956;8.636;2023-03-12T00:11:15;-4.30;90.00
76099;DHT22;64828;49.956;8.636;2023-03-12T00:11:32;-4.30;90.10
76099;DHT22;64828;49.956;8.636;2023-03-12T00:11:47;-4.30;90.10
76099;DHT22;64828;49.956;8.636;2023-03-12T00:12:04;-4.30;90.10
76099;DHT22;64828;49.956;8.636;2023-03-12T00:12:20;-4.30;90.10
76099;DHT22;64828;49.956;8.636;2023-03-12T00:12:35;-4.30;90.10
76099;DHT22;64828;49.956;8.636;2023-03-12T00:12:51;-4.30;90.10
76099;DHT22;64828;49.956;8.636;2023-03-12T00:13:07;-4.30;90.10
76099;DHT22;64828;49.956;8.636;2023-03-12T00:13:23;-4.30;90.10
76099;DHT22;64828;49.956;8.636;2023-03-12T00:13:41;-4.30;90.10
76099;DHT22;64828;49.956;8.636;2023-03-12T00:13:57;-4.30;90.10
76099;DHT22;64828;49.956;8.636;2023-03-12T00:14:14;-4.30;90.00
76099;DHT22;64828;49.956;8.636;2023-03-12T00:14:30;-4.30;89.90
76099;DHT22;64828;49.956;8.636;2023-03-12T00:14:46;-4.30;90.00
76099;DHT22;64828;49.956;8.636;2023-03-12T00:15:02;-4.30;90.00
76099;DHT22;64828;49.956;8.636;2023-03-12T00:15:18;-4.30;90.00
76099;DHT22;64828;49.956;8.636;2023-03-12T00:15:38;-4.30;90.00
76099;DHT22;64828;49.956;8.636;2023-03-12T00:15:53;-4.20;90.00
76099;DHT22;64828;49.956;8.636;2023-03-12T00:16:13;-4.30;90.10
76099;DHT22;64828;49.956;8.636;2023-03-12T00:16:29;-4.30;90.10
76099;DHT22;64828;49.956;8.636;2023-03-12T00:16:45;-4.30;90.10
76099;DHT22;64828;49.956;8.636;2023-03-12T00:17:00;-4.30;90.10
76099;DHT22;64828;49.956;8.636;2023-03-12T00:17:16;-4.30;90.10
76099;DHT22;64828;49.956;8.636;2023-03-12T00:17:32;-4.20;90.10
76099;DHT22;64828;49.956;8.636;2023-03-12T00:17:47;-4.20;90.10
76099;DHT22;64828;49.956;8.636;2023-03-12T00:18:03;-4.20;90.20
76099;DHT22;64828;49.956;8.636;2023-03-12T00:18:19;-4.20;90.20
76099;DHT22;64828;49.956;8.636;2023-03-12T00:18:35;-4.20;90.30
76099;DHT22;64828;49.956;8.636;2023-03-12T00:18:52;-4.20;90.30
76099;DHT22;64828;49.956;8.636;2023-03-12T00:19:11;-4.30;90.30
76099;DHT22;64828;49.956;8.636;2023-03-12T00:19:27;-4.20;90.30
76099;DHT22;64828;49.956;8.636;2023-03-12T00:19:43;-4.20;90.30
76099;DHT22;64828;49.956;8.636;2023-03-12T00:19:59;-4.20;90.30
76099;DHT22;64828;49.956;8.636;2023-03-12T00:20:15;-4.20;90.30
76099;DHT22;64828;49.956;8.636;2023-03-12T00:20:31;-4.20;90.30
76099;DHT22;64828;49.956;8.636;2023-03-12T00:20:54;-4.30;90.20
76099;DHT22;64828;49.956;8.636;2023-03-12T00:21:09;-4.20;90.30
76099;DHT22;64828;49.956;8.636;2023-03-12T00:21:25;-4.20;90.20
76099;DHT22;64828;49.956;8.636;2023-03-12T00:21:41;-4.20;90.20
76099;DHT22;64828;49.956;8.636;2023-03-12T00:21:57;-4.20;90.20
76099;DHT22;64828;49.956;8.636;2023-03-12T00:22:12;-4.30;90.20
76099;DHT22;64828;49.956;8.636;2023-03-12T00:22:31;-4.20;90.30
76099;DHT22;64828;49.956;8.636;2023-03-12T00:22:46;-4.20;90.30
76099;DHT22;64828;49.956;8.636;2023-03-12T00:23:02;-4.20;90.30
76099;DHT22;64828;49.956;8.636;2023-03-12T00:23:18;-4.20;90.30
76099;DHT22;64828;49.956;8.636;2023-03-12T00:23:34;-4.20;90.30
76099;DHT22;64828;49.956;8.636;2023-03-12T00:23:51;-4.20;90.30
76099;DHT22;64828;49.956;8.636;2023-03-12T00:24:07;-4.20;90.30
76099;DHT22;64828;49.956;8.636;2023-03-12T00:24:23;-4.20;90.20
76099;DHT22;64828;49.956;8.636;2023-03-12T00:24:38;-4.30;90.20
76099;DHT22;64828;49.956;8.636;2023-03-12T00:24:55;-4.20;90.30
76099;DHT22;64828;49.956;8.636;2023-03-12T00:25:14;-4.30;90.20
76099;DHT22;64828;49.956;8.636;2023-03-12T00:25:30;-4.30;90.30
76099;DHT22;64828;49.956;8.636;2023-03-12T00:25:46;-4.20;90.30
76099;DHT22;64828;49.956;8.636;2023-03-12T00:26:04;-4.30;90.30
76099;DHT22;64828;49.956;8.636;2023-03-12T00:26:22;-4.20;90.40
76099;DHT22;64828;49.956;8.636;2023-03-12T00:26:38;-4.20;90.40
76099;DHT22;64828;49.956;8.636;2023-03-12T00:26:54;-4.20;90.40
76099;DHT22;64828;49.956;8.636;2023-03-12T00:27:10;-4.30;90.40
76099;DHT22;64828;49.956;8.636;2023-03-12T00:27:26;-4.30;90.40
76099;DHT22;64828;49.956;8.636;2023-03-12T00:27:43;-4.30;90.40
76099;DHT22;64828;49.956;8.636;2023-03-12T00:27:58;-4.30;90.30
76099;DHT22;64828;49.956;8.636;2023-03-12T00:28:14;-4.30;90.30
76099;DHT22;64828;49.956;8.636;2023-03-12T00:28:31;-4.20;90.40
76099;DHT22;64828;49.956;8.636;2023-03-12T00:28:48;-4.30;90.40
76099;DHT22;64828;49.956;8.636;2023-03-12T00:29:04;-4.30;90.40
76099;DHT22;64828;49.956;8.636;2023-03-12T00:29:20;-4.30;90.40
76099;DHT22;64828;49.956;8.636;2023-03-12T00:29:35;-4.30;90.30
76099;DHT22;64828;49.956;8.636;2023-03-12T00:29:51;-4.30;90.30
76099;DHT22;64828;49.956;8.636;2023-03-12T00:30:08;-4.30;90.30
76099;DHT22;64828;49.956;8.636;2023-03-12T00:30:25;-4.30;90.30
76099;DHT22;64828;49.956;8.636;2023-03-12T00:30:42;-4.30;90.30
76099;DHT22;64828;49.956;8.636;2023-03-12T00:30:58;-4.30;90.30
76099;DHT22;64828;49.956;8.636;2023-03-12T00:31:22;-4.40;90.30
76099;DHT22;64828;49.956;8.636;2023-03-12T00:31:43;-4.30;90.30
76099;DHT22;64828;49.956;8.636;2023-03-12T00:31:58;-4.40;90.30
76099;DHT22;64828;49.956;8.636;2023-03-12T00:32:14;-4.40;90.30
76099;DHT22;64828;49.956;8.636;2023-03-12T00:32:33;-4.40;90.30
76099;DHT22;64828;49.956;8.636;2023-03-12T00:32:49;-4.40;90.20
76099;DHT22;64828;49.956;8.636;2023-03-12T00:33:05;-4.40;90.20
76099;DHT22;64828;49.956;8.636;2023-03-12T00:33:20;-4.40;90.20
76099;DHT22;64828;49.956;8.636;2023-03-12T00:33:36;-4.40;90.30
76099;DHT22;64828;49.956;8.636;2023-03-12T00:33:52;-4.40;90.30
76099;DHT22;64828;49.956;8.636;2023-03-12T00:34:09;-4.40;90.40
76099;DHT22;64828;49.956;8.636;2023-03-12T00:34:25;-4.40;90.40
76099;DHT22;64828;49.956;8.636;2023-03-12T00:34:41;-4.40;90.50
76099;DHT22;64828;49.956;8.636;2023-03-12T00:34:56;-4.40;90.50
76099;DHT22;64828;49.956;8.636;2023-03-12T00:35:12;-4.40;90.50
76099;DHT22;64828;49.956;8.636;2023-03-12T00:35:28;-4.40;90.40
76099;DHT22;64828;49.956;8.636;2023-03-12T00:35:44;-4.40;90.40
76099;DHT22;64828;49.956;8.636;2023-03-12T00:35:59;-4.40;90.40
76099;DHT22;64828;49.956;8.636;2023-03-12T00:36:17;-4.40;90.30
76099;DHT22;64828;49.956;8.636;2023-03-12T00:36:33;-4.40;90.40
76099;DHT22;64828;49.956;8.636;2023-03-12T00:36:49;-4.40;90.40
76099;DHT22;64828;49.956;8.636;2023-03-12T00:37:05;-4.40;90.50
76099;DHT22;64828;49.956;8.636;2023-03-12T00:37:22;-4.40;90.50
76099;DHT22;64828;49.956;8.636;2023-03-12T00:37:38;-4.40;90.50
76099;DHT22;64828;49.956;8.636;2023-03-12T00:37:54;-4.40;90.50
76099;DHT22;64828;49.956;8.636;2023-03-12T00:38:09;-4.40;90.40
76099;DHT22;64828;49.956;8.636;2023-03-12T00:38:25;-4.40;90.40
76099;DHT22;64828;49.956;8.636;2023-03-12T00:38:41;-4.40;90.40
76099;DHT22;64828;49.956;8.636;2023-03-12T00:38:58;-4.40;90.40
76099;DHT22;64828;49.956;8.636;2023-03-12T00:39:15;-4.40;90.30
76099;DHT22;64828;49.956;8.636;2023-03-12T00:39:31;-4.40;90.40
76099;DHT22;64828;49.956;8.636;2023-03-12T00:39:47;-4.40;90.40
76099;DHT22;64828;49.956;8.636;2023-03-12T00:40:03;-4.40;90.40
76099;DHT22;64828;49.956;8.636;2023-03-12T00:40:20;-4.40;90.40
76099;DHT22;64828;49.956;8.636;2023-03-12T00:40:35;-4.40;90.40
76099;DHT22;64828;49.956;8.636;2023-03-12T00:40:51;-4.40;90.40
76099;DHT22;64828;49.956;8.636;2023-03-12T00:41:07;-4.40;90.40
76099;DHT22;64828;49.956;8.636;2023-03-12T00:41:23;-4.40;90.40
76099;DHT22;64828;49.956;8.636;2023-03-12T00:41:39;-4.40;90.40
76099;DHT22;64828;49.956;8.636;2023-03-12T00:41:54;-4.40;90.40
76099;DHT22;64828;49.956;8.636;2023-03-12T00:42:10;-4.40;90.40
76099;DHT22;64828;49.956;8.636;2023-03-12T00:42:27;-4.40;90.40
76099;DHT22;64828;49.956;8.636;2023-03-12T00:42:43;-4.40;90.40
76099;DHT22;64828;49.956;8.636;2023-03-12T00:42:58;-4.40;90.40
76099;DHT22;64828;49.956;8.636;2023-03-12T00:43:14;-4.40;90.40
76099;DHT22;64828;49.956;8.636;2023-03-12T00:43:29;-4.40;90.50
76099;DHT22;64828;49.956;8.636;2023-03-12T00:43:46;-4.40;90.50
76099;DHT22;64828;49.956;8.636;2023-03-12T00:44:03;-4.40;90.50
76099;DHT22;64828;49.956;8.636;2023-03-12T00:44:18;-4.40;90.50
76099;DHT22;64828;49.956;8.636;2023-03-12T00:44:34;-4.30;90.50
76099;DHT22;64828;49.956;8.636;2023-03-12T00:44:49;-4.30;90.50
76099;DHT22;64828;49.956;8.636;2023-03-12T00:45:06;-4.30;90.50
76099;DHT22;64828;49.956;8.636;2023-03-12T00:45:22;-4.30;90.50
76099;DHT22;64828;49.956;8.636;2023-03-12T00:45:37;-4.30;90.50
76099;DHT22;64828;49.956;8.636;2023-03-12T00:45:53;-4.30;90.40
76099;DHT22;64828;49.956;8.636;2023-03-12T00:46:08;-4.30;90.40
76099;DHT22;64828;49.956;8.636;2023-03-12T00:46:24;-4.30;90.40
76099;DHT22;64828;49.956;8.636;2023-03-12T00:46:40;-4.20;90.40
76099;DHT22;64828;49.956;8.636;2023-03-12T00:46:56;-4.20;90.50
76099;DHT22;64828;49.956;8.636;2023-03-12T00:47:12;-4.20;90.50
76099;DHT22;64828;49.956;8.636;2023-03-12T00:47:28;-4.20;90.50
76099;DHT22;64828;49.956;8.636;2023-03-12T00:47:43;-4.20;90.50
76099;DHT22;64828;49.956;8.636;2023-03-12T00:47:59;-4.20;90.50
76099;DHT22;64828;49.956;8.636;2023-03-12T00:48:14;-4.20;90.50
76099;DHT22;64828;49.956;8.636;2023-03-12T00:48:30;-4.20;90.50
76099;DHT22;64828;49.956;8.636;2023-03-12T00:48:46;-4.20;90.60
76099;DHT22;64828;49.956;8.636;2023-03-12T00:49:01;-4.20;90.60
76099;DHT22;64828;49.956;8.636;2023-03-12T00:49:17;-4.20;90.60
76099;DHT22;64828;49.956;8.636;2023-03-12T00:49:33;-4.20;90.60
76099;DHT22;64828;49.956;8.636;2023-03-12T00:49:48;-4.20;90.60
76099;DHT22;64828;49.956;8.636;2023-03-12T00:50:04;-4.20;90.60
76099;DHT22;64828;49.956;8.636;2023-03-12T00:50:20;-4.20;90.50
76099;DHT22;64828;49.956;8.636;2023-03-12T00:50:36;-4.10;90.50
76099;DHT22;64828;49.956;8.636;2023-03-12T00:50:51;-4.10;90.50
76099;DHT22;64828;49.956;8.636;2023-03-12T00:51:07;-4.20;90.50
76099;DHT22;64828;49.956;8.636;2023-03-12T00:51:23;-4.10;90.40
76099;DHT22;64828;49.956;8.636;2023-03-12T00:51:39;-4.10;90.40
76099;DHT22;64828;49.956;8.636;2023-03-12T00:51:55;-4.10;90.40
76099;DHT22;64828;49.956;8.636;2023-03-12T00:52:10;-4.10;90.40
76099;DHT22;64828;49.956;8.636;2023-03-12T00:52:26;-4.10;90.40
76099;DHT22;64828;49.956;8.636;2023-03-12T00:52:42;-4.10;90.40
76099;DHT22;64828;49.956;8.636;2023-03-12T00:52:58;-4.10;90.40
76099;DHT22;64828;49.956;8.636;2023-03-12T00:53:13;-4.10;90.40
76099;DHT22;64828;49.956;8.636;2023-03-12T00:53:29;-4.10;90.50
76099;DHT22;64828;49.956;8.636;2023-03-12T00:53:44;-4.10;90.40
76099;DHT22;64828;49.956;8.636;2023-03-12T00:54:00;-4.10;90.40
76099;DHT22;64828;49.956;8.636;2023-03-12T00:54:16;-4.00;90.40
76099;DHT22;64828;49.956;8.636;2023-03-12T00:54:31;-4.00;90.40
76099;DHT22;64828;49.956;8.636;2023-03-12T00:54:47;-4.00;90.30
76099;DHT22;64828;49.956;8.636;2023-03-12T00:55:03;-4.00;90.30
76099;DHT22;64828;49.956;8.636;2023-03-12T00:55:20;-4.00;90.30
76099;DHT22;64828;49.956;8.636;2023-03-12T00:55:35;-4.00;90.30
76099;DHT22;64828;49.956;8.636;2023-03-12T00:55:51;-4.00;90.30
76099;DHT22;64828;49.956;8.636;2023-03-12T00:56:07;-4.00;90.30
76099;DHT22;64828;49.956;8.636;2023-03-12T00:56:23;-4.00;90.30
76099;DHT22;64828;49.956;8.636;2023-03-12T00:56:39;-4.00;90.30
76099;DHT22;64828;49.956;8.636;2023-03-12T00:56:54;-4.00;90.30
76099;DHT22;64828;49.956;8.636;2023-03-12T00:57:10;-4.00;90.30
76099;DHT22;64828;49.956;8.636;2023-03-12T00:57:25;-4.00;90.20
76099;DHT22;64828;49.956;8.636;2023-03-12T00:57:41;-4.00;90.20
76099;DHT22;64828;49.956;8.636;2023-03-12T00:57:57;-4.00;90.20
76099;DHT22;64828;49.956;8.636;2023-03-12T00:58:12;-3.90;90.20
76099;DHT22;64828;49.956;8.636;2023-03-12T00:58:28;-3.90;90.20
76099;DHT22;64828;49.956;8.636;2023-03-12T00:58:43;-3.90;90.10
76099;DHT22;64828;49.956;8.636;2023-03-12T00:59:00;-3.90;90.10
76099;DHT22;64828;49.956;8.636;2023-03-12T00:59:16;-3.90;90.10
76099;DHT22;64828;49.956;8.636;2023-03-12T00:59:31;-3.90;90.10
76099;DHT22;64828;49.956;8.636;2023-03-12T00:59:47;-3.90;90.10
76099;DHT22;64828;49.956;8.636;2023-03-12T01:00:03;-3.90;90.00
76099;DHT22;64828;49.956;8.636;2023-03-12T01:00:24;-3.90;90.00
76099;DHT22;64828;49.956;8.636;2023-03-12T01:00:40;-3.80;90.00
76099;DHT22;64828;49.956;8.636;2023-03-12T01:00:56;-3.80;90.00
76099;DHT22;64828;49.956;8.636;2023-03-12T01:01:11;-3.80;90.00
76099;DHT22;64828;49.956;8.636;2023-03-12T01:01:27;-3.80;89.90
76099;DHT22;64828;49.956;8.636;2023-03-12T01:01:43;-3.80;89.90
76099;DHT22;64828;49.956;8.636;2023-03-12T01:01:59;-3.80;89.90
76099;DHT22;64828;49.956;8.636;2023-03-12T01:02:14;-3.80;89.90
76099;DHT22;64828;49.956;8.636;2023-03-12T01:02:30;-3.80;89.90
76099;DHT22;64828;49.956;8.636;2023-03-12T01:02:46;-3.80;89.90
76099;DHT22;64828;49.956;8.636;2023-03-12T01:03:01;-3.80;89.80
76099;DHT22;64828;49.956;8.636;2023-03-12T01:03:17;-3.70;89.80
76099;DHT22;64828;49.956;8.636;2023-03-12T01:03:33;-3.70;89.80
76099;DHT22;64828;49.956;8.636;2023-03-12T01:03:50;-3.70;89.70
76099;DHT22;64828;49.956;8.636;2023-03-12T01:04:09;-3.70;89.70
76099;DHT22;64828;49.956;8.636;2023-03-12T01:04:25;-3.70;89.60
76099;DHT22;64828;49.956;8.636;2023-03-12T01:04:40;-3.70;89.70
76099;DHT22;64828;49.956;8.636;2023-03-12T01:04:56;-3.70;89.60
76099;DHT22;64828;49.956;8.636;2023-03-12T01:05:12;-3.70;89.60
76099;DHT22;64828;49.956;8.636;2023-03-12T01:05:28;-3.70;89.50
76099;DHT22;64828;49.956;8.636;2023-03-12T01:05:44;-3.70;89.50
76099;DHT22;64828;49.956;8.636;2023-03-12T01:06:00;-3.70;89.50
76099;DHT22;64828;49.956;8.636;2023-03-12T01:06:15;-3.70;89.50
76099;DHT22;64828;49.956;8.636;2023-03-12T01:06:31;-3.60;89.50
76099;DHT22;64828;49.956;8.636;2023-03-12T01:06:47;-3.60;89.50
76099;DHT22;64828;49.956;8.636;2023-03-12T01:07:03;-3.60;89.50
76099;DHT22;64828;49.956;8.636;2023-03-12T01:07:18;-3.60;89.50
76099;DHT22;64828;49.956;8.636;2023-03-12T01:07:34;-3.60;89.50
76099;DHT22;64828;49.956;8.636;2023-03-12T01:07:50;-3.60;89.50
76099;DHT22;64828;49.956;8.636;2023-03-12T01:08:07;-3.60;89.50
76099;DHT22;64828;49.956;8.636;2023-03-12T01:08:24;-3.60;89.40
76099;DHT22;64828;49.956;8.636;2023-03-12T01:08:39;-3.50;89.40
76099;DHT22;64828;49.956;8.636;2023-03-12T01:08:55;-3.50;89.40
76099;DHT22;64828;49.956;8.636;2023-03-12T01:09:11;-3.60;89.30
76099;DHT22;64828;49.956;8.636;2023-03-12T01:09:26;-3.50;89.30
76099;DHT22;64828;49.956;8.636;2023-03-12T01:09:42;-3.50;89.20
76099;DHT22;64828;49.956;8.636;2023-03-12T01:09:58;-3.50;89.20
76099;DHT22;64828;49.956;8.636;2023-03-12T01:10:14;-3.50;89.20
76099;DHT22;64828;49.956;8.636;2023-03-12T01:10:31;-3.50;89.10
76099;DHT22;64828;49.956;8.636;2023-03-12T01:10:47;-3.50;89.10
76099;DHT22;64828;49.956;8.636;2023-03-12T01:11:03;-3.50;89.00
76099;DHT22;64828;49.956;8.636;2023-03-12T01:11:19;-3.50;89.00
76099;DHT22;64828;49.956;8.636;2023-03-12T01:11:36;-3.50;88.90
76099;DHT22;64828;49.956;8.636;2023-03-12T01:11:53;-3.40;88.90
76099;DHT22;64828;49.956;8.636;2023-03-12T01:12:08;-3.40;88.90
76099;DHT22;64828;49.956;8.636;2023-03-12T01:12:24;-3.40;88.90
76099;DHT22;64828;49.956;8.636;2023-03-12T01:12:42;-3.40;88.80
76099;DHT22;64828;49.956;8.636;2023-03-12T01:12:57;-3.40;88.70
76099;DHT22;64828;49.956;8.636;2023-03-12T01:13:13;-3.40;88.70
76099;DHT22;64828;49.956;8.636;2023-03-12T01:13:29;-3.40;88.70
76099;DHT22;64828;49.956;8.636;2023-03-12T01:13:45;-3.40;88.70
76099;DHT22;64828;49.956;8.636;2023-03-12T01:14:02;-3.40;88.70
76099;DHT22;64828;49.956;8.636;2023-03-12T01:14:19;-3.40;88.80
76099;DHT22;64828;49.956;8.636;2023-03-12T01:14:35;-3.40;88.80
76099;DHT22;64828;49.956;8.636;2023-03-12T01:14:51;-3.40;88.80
76099;DHT22;64828;49.956;8.636;2023-03-12T01:15:07;-3.40;88.70
76099;DHT22;64828;49.956;8.636;2023-03-12T01:15:24;-3.40;88.70
76099;DHT22;64828;49.956;8.636;2023-03-12T01:15:40;-3.40;88.70
76099;DHT22;64828;49.956;8.636;2023-03-12T01:15:55;-3.40;88.60
76099;DHT22;64828;49.956;8.636;2023-03-12T01:16:11;-3.40;88.60
76099;DHT22;64828;49.956;8.636;2023-03-12T01:16:28;-3.40;88.60
76099;DHT22;64828;49.956;8.636;2023-03-12T01:16:44;-3.40;88.70
76099;DHT22;64828;49.956;8.636;2023-03-12T01:17:00;-3.40;88.70
76099;DHT22;64828;49.956;8.636;2023-03-12T01:17:15;-3.40;88.70
76099;DHT22;64828;49.956;8.636;2023-03-12T01:17:31;-3.40;88.70
76099;DHT22;64828;49.956;8.636;2023-03-12T01:17:47;-3.40;88.70
76099;DHT22;64828;49.956;8.636;2023-03-12T01:18:02;-3.30;88.70
76099;DHT22;64828;49.956;8.636;2023-03-12T01:18:18;-3.30;88.60
76099;DHT22;64828;49.956;8.636;2023-03-12T01:18:34;-3.30;88.70
76099;DHT22;64828;49.956;8.636;2023-03-12T01:18:50;-3.30;88.70
76099;DHT22;64828;49.956;8.636;2023-03-12T01:19:05;-3.30;88.70
76099;DHT22;64828;49.956;8.636;2023-03-12T01:19:21;-3.30;88.70
76099;DHT22;64828;49.956;8.636;2023-03-12T01:19:37;-3.30;88.70
76099;DHT22;64828;49.956;8.636;2023-03-12T01:19:52;-3.30;88.60
76099;DHT22;64828;49.956;8.636;2023-03-12T01:20:09;-3.30;88.60
76099;DHT22;64828;49.956;8.636;2023-03-12T01:20:25;-3.30;88.60
76099;DHT22;64828;49.956;8.636;2023-03-12T01:20:41;-3.30;88.70
76099;DHT22;64828;49.956;8.636;2023-03-12T01:20:56;-3.30;88.70
76099;DHT22;64828;49.956;8.636;2023-03-12T01:21:13;-3.30;88.70
76099;DHT22;64828;49.956;8.636;2023-03-12T01:21:29;-3.30;88.70
76099;DHT22;64828;49.956;8.636;2023-03-12T01:21:45;-3.30;88.70
76099;DHT22;64828;49.956;8.636;2023-03-12T01:22:01;-3.30;88.60
76099;DHT22;64828;49.956;8.636;2023-03-12T01:22:17;-3.30;88.60
76099;DHT22;64828;49.956;8.636;2023-03-12T01:22:33;-3.30;88.70
76099;DHT22;64828;49.956;8.636;2023-03-12T01:22:49;-3.30;88.70
76099;DHT22;64828;49.956;8.636;2023-03-12T01:23:05;-3.30;88.60
76099;DHT22;64828;49.956;8.636;2023-03-12T01:23:21;-3.30;88.60
76099;DHT22;64828;49.956;8.636;2023-03-12T01:23:37;-3.30;88.60
76099;DHT22;64828;49.956;8.636;2023-03-12T01:23:53;-3.30;88.60
76099;DHT22;64828;49.956;8.636;2023-03-12T01:24:09;-3.30;88.60
76099;DHT22;64828;49.956;8.636;2023-03-12T01:24:25;-3.30;88.60
76099;DHT22;64828;49.956;8.636;2023-03-12T01:24:40;-3.30;88.60
76099;DHT22;64828;49.956;8.636;2023-03-12T01:24:56;-3.30;88.60
76099;DHT22;64828;49.956;8.636;2023-03-12T01:25:12;-3.20;88.60
76099;DHT22;64828;49.956;8.636;2023-03-12T01:25:27;-3.20;88.60
76099;DHT22;64828;49.956;8.636;2023-03-12T01:25:43;-3.30;88.60
76099;DHT22;64828;49.956;8.636;2023-03-12T01:25:59;-3.30;88.60
76099;DHT22;64828;49.956;8.636;2023-03-12T01:26:14;-3.20;88.60
76099;DHT22;64828;49.956;8.636;2023-03-12T01:26:30;-3.20;88.60
76099;DHT22;64828;49.956;8.636;2023-03-12T01:26:45;-3.20;88.60
76099;DHT22;64828;49.956;8.636;2023-03-12T01:27:01;-3.20;88.60
76099;DHT22;64828;49.956;8.636;2023-03-12T01:27:17;-3.20;88.50
76099;DHT22;64828;49.956;8.636;2023-03-12T01:27:32;-3.20;88.50
76099;DHT22;64828;49.956;8.636;2023-03-12T01:27:48;-3.20;88.60
76099;DHT22;64828;49.956;8.636;2023-03-12T01:28:04;-3.20;88.50
76099;DHT22;64828;49.956;8.636;2023-03-12T01:28:22;-3.20;88.60
76099;DHT22;64828;49.956;8.636;2023-03-12T01:28:38;-3.20;88.60
76099;DHT22;64828;49.956;8.636;2023-03-12T01:28:53;-3.20;88.60
76099;DHT22;64828;49.956;8.636;2023-03-12T01:29:09;-3.20;88.60
76099;DHT22;64828;49.956;8.636;2023-03-12T01:29:25;-3.20;88.60
76099;DHT22;64828;49.956;8.636;2023-03-12T01:29:40;-3.20;88.50
76099;DHT22;64828;49.956;8.636;2023-03-12T01:29:56;-3.20;88.50
76099;DHT22;64828;49.956;8.636;2023-03-12T01:30:12;-3.20;88.50
76099;DHT22;64828;49.956;8.636;2023-03-12T01:30:29;-3.20;88.40
76099;DHT22;64828;49.956;8.636;2023-03-12T01:30:45;-3.20;88.30
76099;DHT22;64828;49.956;8.636;2023-03-12T01:31:06;-3.20;88.30
76099;DHT22;64828;49.956;8.636;2023-03-12T01:31:22;-3.20;88.30
76099;DHT22;64828;49.956;8.636;2023-03-12T01:31:38;-3.20;88.30
76099;DHT22;64828;49.956;8.636;2023-03-12T01:31:54;-3.20;88.40
76099;DHT22;64828;49.956;8.636;2023-03-12T01:32:09;-3.20;88.30
76099;DHT22;64828;49.956;8.636;2023-03-12T01:32:25;-3.20;88.30
76099;DHT22;64828;49.956;8.636;2023-03-12T01:32:40;-3.20;88.30
76099;DHT22;64828;49.956;8.636;2023-03-12T01:32:56;-3.20;88.40
76099;DHT22;64828;49.956;8.636;2023-03-12T01:33:12;-3.20;88.40
76099;DHT22;64828;49.956;8.636;2023-03-12T01:33:28;-3.20;88.40
76099;DHT22;64828;49.956;8.636;2023-03-12T01:33:47;-3.20;88.40
76099;DHT22;64828;49.956;8.636;2023-03-12T01:34:09;-3.10;88.40
76099;DHT22;64828;49.956;8.636;2023-03-12T01:34:25;-3.10;88.40
76099;DHT22;64828;49.956;8.636;2023-03-12T01:34:42;-3.20;88.40
76099;DHT22;64828;49.956;8.636;2023-03-12T01:34:58;-3.20;88.40
76099;DHT22;64828;49.956;8.636;2023-03-12T01:35:14;-3.10;88.40
76099;DHT22;64828;49.956;8.636;2023-03-12T01:35:35;-3.10;88.50
76099;DHT22;64828;49.956;8.636;2023-03-12T01:35:53;-3.20;88.50
76099;DHT22;64828;49.956;8.636;2023-03-12T01:36:22;-3.10;88.40
76099;DHT22;64828;49.956;8.636;2023-03-12T01:36:39;-3.20;88.40
76099;DHT22;64828;49.956;8.636;2023-03-12T01:36:55;-3.10;88.40
76099;DHT22;64828;49.956;8.636;2023-03-12T01:37:11;-3.10;88.40
76099;DHT22;64828;49.956;8.636;2023-03-12T01:37:27;-3.10;88.40
76099;DHT22;64828;49.956;8.636;2023-03-12T01:37:43;-3.20;88.40
76099;DHT22;64828;49.956;8.636;2023-03-12T01:37:58;-3.10;88.40
76099;DHT22;64828;49.956;8.636;2023-03-12T01:38:14;-3.10;88.40
76099;DHT22;64828;49.956;8.636;2023-03-12T01:38:30;-3.10;88.40
76099;DHT22;64828;49.956;8.636;2023-03-12T01:38:46;-3.10;88.30
76099;DHT22;64828;49.956;8.636;2023-03-12T01:39:04;-3.10;88.30
76099;DHT22;64828;49.956;8.636;2023-03-12T01:39:20;-3.10;88.30
76099;DHT22;64828;49.956;8.636;2023-03-12T01:39:35;-3.10;88.30
76099;DHT22;64828;49.956;8.636;2023-03-12T01:39:51;-3.10;88.30
76099;DHT22;64828;49.956;8.636;2023-03-12T01:40:07;-3.10;88.30
76099;DHT22;64828;49.956;8.636;2023-03-12T01:40:32;-3.10;88.30
76099;DHT22;64828;49.956;8.636;2023-03-12T01:40:49;-3.10;88.30
76099;DHT22;64828;49.956;8.636;2023-03-12T01:41:05;-3.10;88.30
76099;DHT22;64828;49.956;8.636;2023-03-12T01:41:22;-3.10;88.30
76099;DHT22;64828;49.956;8.636;2023-03-12T01:41:38;-3.10;88.30
76099;DHT22;64828;49.956;8.636;2023-03-12T01:41:54;-3.10;88.20
76099;DHT22;64828;49.956;8.636;2023-03-12T01:42:10;-3.10;88.20
76099;DHT22;64828;49.956;8.636;2023-03-12T01:42:25;-3.10;88.20
76099;DHT22;64828;49.956;8.636;2023-03-12T01:42:41;-3.10;88.20